createdAt,value
2018-09-25T00:01:01.474Z,10.07
2018-09-25T00:03:34.657Z,9.97
2018-09-25T00:06:07.925Z,7.13
2018-09-25T00:08:40.993Z,5.70
2018-09-25T00:11:14.221Z,8.63
2018-09-25T00:13:47.421Z,9.37
2018-09-25T00:16:20.667Z,11.50
2018-09-25T00:18:54.072Z,8.83
2018-09-25T00:21:37.038Z,8.20
2018-09-25T00:24:10.212Z,10.77
2018-09-25T00:26:43.426Z,6.50
2018-09-25T00:29:16.762Z,9.53
2018-09-25T00:31:50.130Z,8.50
2018-09-25T00:34:23.429Z,14.10
2018-09-25T00:36:56.613Z,12.47
2018-09-25T00:39:29.945Z,7.27
2018-09-25T00:42:03.299Z,10.07
2018-09-25T00:44:36.482Z,7.70
2018-09-25T00:47:11.114Z,8.33
2018-09-25T00:49:44.404Z,7.93
2018-09-25T00:52:17.524Z,9.77
2018-09-25T00:54:50.724Z,7.37
2018-09-25T00:57:23.960Z,8.00
2018-09-25T00:59:57.445Z,11.17
2018-09-25T01:02:30.683Z,9.00
2018-09-25T01:05:03.888Z,12.50
2018-09-25T01:07:37.131Z,12.30
2018-09-25T01:10:10.350Z,11.70
2018-09-25T01:12:43.514Z,11.73
2018-09-25T01:15:16.885Z,9.83
2018-09-25T01:17:50.205Z,12.13
2018-09-25T01:20:23.485Z,10.63
2018-09-25T01:22:56.994Z,9.97
2018-09-25T01:25:30.215Z,7.70
2018-09-25T01:28:03.573Z,10.83
2018-09-25T01:30:36.749Z,18.80
2018-09-25T01:33:10.009Z,14.70
2018-09-25T01:35:43.308Z,10.20
2018-09-25T01:38:16.409Z,8.40
2018-09-25T01:40:49.776Z,9.43
2018-09-25T01:43:23.170Z,10.47
2018-09-25T01:45:56.361Z,10.63
2018-09-25T01:48:29.521Z,12.87
2018-09-25T01:51:02.755Z,8.33
2018-09-25T01:53:35.947Z,9.60
2018-09-25T01:56:09.137Z,12.90
2018-09-25T01:58:42.261Z,14.63
2018-09-25T02:01:15.447Z,11.07
2018-09-25T02:03:48.741Z,16.27
2018-09-25T02:06:21.902Z,10.67
2018-09-25T02:08:55.417Z,14.03
2018-09-25T02:11:28.486Z,14.53
2018-09-25T02:14:01.744Z,14.77
2018-09-25T02:16:34.934Z,14.47
2018-09-25T02:19:08.185Z,15.60
2018-09-25T02:21:41.325Z,16.93
2018-09-25T02:24:14.519Z,16.90
2018-09-25T02:26:47.750Z,13.03
2018-09-25T02:29:21.112Z,14.53
2018-09-25T02:31:56.272Z,16.47
2018-09-25T02:34:30.576Z,15.30
2018-09-25T02:37:03.853Z,12.50
2018-09-25T02:39:37.023Z,13.57
2018-09-25T02:42:23.878Z,16.00
2018-09-25T02:44:57.054Z,10.93
2018-09-25T02:47:30.265Z,16.27
2018-09-25T02:50:03.498Z,12.50
2018-09-25T02:52:36.856Z,12.97
2018-09-25T02:55:10.188Z,13.23
2018-09-25T02:57:43.517Z,14.17
2018-09-25T03:00:16.633Z,10.00
2018-09-25T03:02:49.841Z,11.67
2018-09-25T03:05:23.158Z,11.73
2018-09-25T03:07:56.393Z,13.43
2018-09-25T03:10:29.665Z,12.00
2018-09-25T03:13:04.006Z,10.23
2018-09-25T03:15:37.281Z,10.43
2018-09-25T03:18:10.761Z,12.80
2018-09-25T03:20:44.046Z,8.80
2018-09-25T03:23:17.273Z,11.03
2018-09-25T03:25:50.397Z,16.60
2018-09-25T03:28:23.658Z,10.53
2018-09-25T03:30:56.943Z,11.97
2018-09-25T03:33:30.134Z,15.40
2018-09-25T03:36:03.502Z,10.30
2018-09-25T03:38:39.844Z,10.03
2018-09-25T03:41:13.076Z,11.80
2018-09-25T03:43:46.299Z,14.93
2018-09-25T03:46:19.552Z,15.03
2018-09-25T03:48:53.149Z,13.63
2018-09-25T03:51:26.470Z,11.00
2018-09-25T03:53:59.713Z,16.90
2018-09-25T03:56:32.935Z,20.13
2018-09-25T03:59:06.199Z,13.73
2018-09-25T04:01:39.324Z,15.53
2018-09-25T04:04:12.769Z,14.80
2018-09-25T04:06:45.903Z,14.63
2018-09-25T04:09:19.134Z,12.40
2018-09-25T04:11:52.273Z,13.37
2018-09-25T04:14:25.560Z,11.37
2018-09-25T04:16:58.670Z,15.53
2018-09-25T04:19:31.797Z,15.87
2018-09-25T04:22:05.190Z,14.90
2018-09-25T04:24:38.352Z,17.07
2018-09-25T04:27:11.658Z,16.63
2018-09-25T04:29:44.867Z,13.30
2018-09-25T04:32:18.240Z,18.07
2018-09-25T04:34:51.406Z,19.03
2018-09-25T04:37:24.778Z,13.57
2018-09-25T04:39:57.974Z,24.43
2018-09-25T04:42:31.277Z,22.63
2018-09-25T04:45:04.606Z,26.17
2018-09-25T04:47:37.738Z,21.63
2018-09-25T04:50:10.902Z,38.10
2018-09-25T04:52:44.166Z,22.07
2018-09-25T04:55:17.396Z,21.77
2018-09-25T04:57:50.667Z,50.47
2018-09-25T05:00:23.854Z,62.47
2018-09-25T05:02:57.211Z,28.03
2018-09-25T05:05:30.551Z,25.03
2018-09-25T05:08:03.810Z,20.53
2018-09-25T05:10:37.145Z,24.17
2018-09-25T05:13:10.466Z,22.57
2018-09-25T05:15:43.713Z,22.60
2018-09-25T05:18:17.049Z,32.60
2018-09-25T05:20:50.330Z,25.37
2018-09-25T05:23:23.638Z,30.50
2018-09-25T05:25:56.894Z,22.57
2018-09-25T05:28:30.082Z,23.60
2018-09-25T05:31:03.302Z,25.33
2018-09-25T05:33:36.551Z,20.90
2018-09-25T05:36:09.791Z,18.93
2018-09-25T05:38:43.015Z,22.37
2018-09-25T05:41:16.312Z,23.90
2018-09-25T05:43:49.614Z,21.50
2018-09-25T05:46:22.786Z,22.27
2018-09-25T05:48:56.175Z,22.03
2018-09-25T05:51:29.321Z,21.50
2018-09-25T05:54:02.677Z,20.47
2018-09-25T05:56:35.785Z,25.03
2018-09-25T05:59:09.000Z,25.83
2018-09-25T06:01:42.331Z,25.10
2018-09-25T06:04:15.553Z,29.27
2018-09-25T06:06:48.891Z,16.50
2018-09-25T06:09:23.158Z,21.40
2018-09-25T06:11:56.348Z,19.27
2018-09-25T06:14:29.633Z,23.83
2018-09-25T06:17:02.857Z,17.07
2018-09-25T06:19:36.072Z,17.73
2018-09-25T06:22:09.345Z,18.57
2018-09-25T06:24:42.442Z,31.80
2018-09-25T06:27:15.643Z,23.07
2018-09-25T06:29:49.021Z,24.43
2018-09-25T06:32:22.461Z,23.93
2018-09-25T06:34:55.642Z,21.33
2018-09-25T06:37:28.936Z,21.83
2018-09-25T06:40:02.126Z,18.03
2018-09-25T06:42:35.257Z,21.93
2018-09-25T06:45:08.337Z,16.93
2018-09-25T06:47:41.546Z,18.53
2018-09-25T06:50:14.754Z,19.47
2018-09-25T06:52:48.041Z,15.07
2018-09-25T06:55:21.325Z,22.87
2018-09-25T06:57:54.428Z,16.70
2018-09-25T07:00:27.663Z,16.27
2018-09-25T07:03:00.813Z,14.60
2018-09-25T07:05:34.074Z,21.63
2018-09-25T07:08:07.194Z,12.73
2018-09-25T07:10:40.488Z,15.40
2018-09-25T07:13:13.549Z,11.47
2018-09-25T07:15:46.626Z,10.50
2018-09-25T07:18:19.938Z,13.50
2018-09-25T07:20:53.151Z,11.40
2018-09-25T07:23:26.487Z,9.50
2018-09-25T07:25:59.725Z,9.33
2018-09-25T07:28:33.008Z,10.77
2018-09-25T07:31:06.261Z,12.00
2018-09-25T07:33:39.367Z,11.80
2018-09-25T07:36:12.572Z,10.07
2018-09-25T07:38:45.830Z,10.47
2018-09-25T07:41:19.185Z,9.90
2018-09-25T07:43:52.434Z,12.80
2018-09-25T07:46:25.665Z,10.63
2018-09-25T07:48:58.949Z,9.97
2018-09-25T07:51:32.175Z,8.70
2018-09-25T07:54:05.500Z,11.70
2018-09-25T07:56:38.701Z,9.67
2018-09-25T07:59:12.412Z,13.40
2018-09-25T08:01:45.635Z,12.10
2018-09-25T08:04:18.877Z,10.38
2018-09-25T08:06:51.991Z,9.93
2018-09-25T08:09:25.175Z,7.72
2018-09-25T08:11:58.259Z,10.85
2018-09-25T08:14:31.609Z,10.35
2018-09-25T08:17:04.881Z,10.90
2018-09-25T08:19:38.162Z,11.85
2018-09-25T08:22:11.327Z,9.23
2018-09-25T08:24:44.516Z,10.15
2018-09-25T08:27:17.652Z,11.48
2018-09-25T08:29:50.990Z,8.95
2018-09-25T08:32:24.097Z,11.80
2018-09-25T08:34:57.324Z,7.20
2018-09-25T08:37:30.684Z,9.28
2018-09-25T08:40:03.982Z,10.82
2018-09-25T08:42:37.159Z,8.05
2018-09-25T08:45:10.753Z,9.15
2018-09-25T08:47:43.999Z,7.25
2018-09-25T08:50:17.189Z,8.20
2018-09-25T08:52:50.378Z,11.45
2018-09-25T08:55:23.472Z,11.33
2018-09-25T08:57:56.645Z,8.58
2018-09-25T09:00:30.000Z,9.23
2018-09-25T09:03:03.230Z,12.98
2018-09-25T09:05:36.531Z,8.28
2018-09-25T09:08:09.807Z,9.45
2018-09-25T09:10:43.054Z,11.20
2018-09-25T09:13:16.419Z,10.43
2018-09-25T09:15:49.527Z,8.60
2018-09-25T09:18:22.696Z,8.98
2018-09-25T09:20:55.869Z,9.25
2018-09-25T09:23:29.163Z,9.48
2018-09-25T09:26:02.473Z,8.45
2018-09-25T09:28:35.864Z,5.45
2018-09-25T09:31:09.277Z,6.00
2018-09-25T09:33:42.397Z,8.10
2018-09-25T09:36:15.762Z,5.08
2018-09-25T09:38:48.987Z,8.38
2018-09-25T09:41:22.392Z,7.33
2018-09-25T09:43:55.558Z,14.93
2018-09-25T09:46:28.832Z,13.55
2018-09-25T09:49:02.055Z,9.63
2018-09-25T09:51:35.288Z,9.73
2018-09-25T09:54:08.609Z,12.70
2018-09-25T09:56:41.878Z,14.75
2018-09-25T09:59:15.082Z,12.10
2018-09-25T10:01:48.392Z,15.70
2018-09-25T10:04:21.612Z,14.20
2018-09-25T10:06:55.128Z,14.95
2018-09-25T10:09:28.201Z,14.83
2018-09-25T10:12:01.461Z,16.17
2018-09-25T10:14:34.637Z,15.28
2018-09-25T10:17:07.948Z,16.97
2018-09-25T10:19:41.095Z,12.30
2018-09-25T10:22:14.308Z,12.28
2018-09-25T10:24:47.605Z,14.50
2018-09-25T10:27:20.823Z,20.68
2018-09-25T10:29:54.145Z,15.45
2018-09-25T10:32:27.644Z,15.03
2018-09-25T10:35:01.125Z,13.72
2018-09-25T10:37:34.549Z,16.32
2018-09-25T10:40:08.120Z,15.23
2018-09-25T10:42:41.475Z,13.93
2018-09-25T10:45:15.006Z,12.25
2018-09-25T10:47:48.869Z,13.53
2018-09-25T10:50:22.874Z,13.65
2018-09-25T10:52:56.373Z,15.50
2018-09-25T10:55:30.219Z,12.63
2018-09-25T10:58:03.695Z,12.75
2018-09-25T11:00:37.743Z,14.27
2018-09-25T11:03:11.294Z,15.40
2018-09-25T11:05:45.024Z,15.07
2018-09-25T11:08:18.549Z,15.57
2018-09-25T11:10:51.903Z,15.67
2018-09-25T11:13:25.341Z,16.10
2018-09-25T11:15:58.619Z,17.07
2018-09-25T11:18:32.135Z,14.60
2018-09-25T11:21:05.664Z,13.37
2018-09-25T11:23:39.126Z,14.50
2018-09-25T11:26:12.711Z,14.17
2018-09-25T11:28:46.608Z,14.80
2018-09-25T11:31:20.138Z,16.87
2018-09-25T11:33:57.487Z,15.07
2018-09-25T11:36:31.021Z,11.57
2018-09-25T11:39:04.589Z,13.93
2018-09-25T11:41:38.240Z,14.83
2018-09-25T11:44:11.832Z,12.33
2018-09-25T11:46:45.406Z,12.80
2018-09-25T11:49:19.467Z,13.93
2018-09-25T11:51:52.991Z,14.33
2018-09-25T11:54:27.181Z,14.63
2018-09-25T11:57:01.214Z,15.73
2018-09-25T11:59:35.031Z,17.00
2018-09-25T12:02:08.453Z,15.37
2018-09-25T12:04:41.883Z,14.83
2018-09-25T12:07:15.388Z,14.50
2018-09-25T12:09:49.384Z,15.53
2018-09-25T12:12:23.065Z,14.40
2018-09-25T12:14:56.863Z,13.90
2018-09-25T12:17:30.386Z,14.70
2018-09-25T12:20:04.332Z,13.07
2018-09-25T12:22:37.824Z,16.73
2018-09-25T12:25:11.484Z,17.97
2018-09-25T12:27:45.171Z,14.83
2018-09-25T12:30:19.702Z,15.37
2018-09-25T12:32:53.266Z,19.70
2018-09-25T12:35:26.702Z,21.53
2018-09-25T12:38:00.216Z,18.40
2018-09-25T12:40:33.683Z,16.83
2018-09-25T12:43:07.134Z,15.13
2018-09-25T12:45:40.688Z,19.10
2018-09-25T12:48:14.251Z,15.97
2018-09-25T12:50:47.708Z,14.80
2018-09-25T12:53:21.261Z,21.70
2018-09-25T12:55:54.839Z,12.07
2018-09-25T12:58:28.311Z,15.53
2018-09-25T13:01:01.807Z,18.33
2018-09-25T13:03:35.309Z,16.03
2018-09-25T13:06:08.889Z,12.70
2018-09-25T13:08:42.300Z,13.10
2018-09-25T13:11:15.906Z,18.43
2018-09-25T13:13:49.419Z,18.07
2018-09-25T13:16:22.792Z,11.37
2018-09-25T13:18:56.332Z,13.10
2018-09-25T13:21:29.978Z,12.27
2018-09-25T13:24:03.533Z,9.93
2018-09-25T13:26:37.063Z,8.63
2018-09-25T13:29:11.021Z,12.97
2018-09-25T13:31:44.582Z,10.83
2018-09-25T13:34:18.016Z,11.17
2018-09-25T13:36:51.563Z,11.60
2018-09-25T13:39:24.954Z,12.37
2018-09-25T13:41:58.514Z,10.07
2018-09-25T13:44:31.983Z,10.13
2018-09-25T13:47:05.642Z,12.43
2018-09-25T13:49:39.222Z,14.57
2018-09-25T13:52:12.726Z,10.23
2018-09-25T13:54:46.157Z,11.13
2018-09-25T13:57:19.682Z,7.30
2018-09-25T13:59:53.162Z,9.20
2018-09-25T14:02:29.817Z,5.40
2018-09-25T14:05:09.019Z,6.13
2018-09-25T14:07:42.441Z,9.17
2018-09-25T14:10:16.543Z,7.50
2018-09-25T14:12:49.830Z,10.20
2018-09-25T14:15:23.352Z,8.40
2018-09-25T14:17:56.890Z,9.60
2018-09-25T14:20:31.299Z,6.80
2018-09-25T14:23:04.826Z,6.67
2018-09-25T14:25:38.327Z,9.23
2018-09-25T14:28:11.871Z,8.47
2018-09-25T14:30:45.475Z,8.53
2018-09-25T14:33:20.011Z,10.13
2018-09-25T14:35:53.682Z,4.67
2018-09-25T14:38:27.346Z,4.70
2018-09-25T14:41:00.879Z,4.07
2018-09-25T14:43:34.346Z,4.57
2018-09-25T14:46:07.842Z,4.87
2018-09-25T14:48:41.580Z,4.30
2018-09-25T14:51:17.325Z,4.97
2018-09-25T14:53:51.055Z,4.40
2018-09-25T14:56:24.618Z,2.93
2018-09-25T14:58:58.065Z,6.83
2018-09-25T15:01:31.399Z,4.57
2018-09-25T15:04:05.085Z,5.33
2018-09-25T15:06:41.336Z,4.93
2018-09-25T15:09:28.245Z,4.37
2018-09-25T15:12:01.599Z,4.30
2018-09-25T15:14:35.041Z,3.70
2018-09-25T15:17:08.627Z,3.10
2018-09-25T15:19:42.815Z,2.23
2018-09-25T15:22:16.566Z,5.57
2018-09-25T15:24:49.743Z,5.93
2018-09-25T15:27:23.353Z,5.80
2018-09-25T15:29:57.042Z,3.83
2018-09-25T15:32:30.576Z,4.67
2018-09-25T15:35:04.092Z,3.63
2018-09-25T15:37:37.617Z,4.77
2018-09-25T15:40:11.483Z,4.60
2018-09-25T15:42:45.191Z,5.47
2018-09-25T15:45:21.718Z,2.20
2018-09-25T15:47:56.438Z,2.67
2018-09-25T15:50:30.383Z,4.97
2018-09-25T15:53:03.973Z,4.10
2018-09-25T15:55:37.455Z,5.33
2018-09-25T15:58:10.981Z,4.47
2018-09-25T16:00:44.650Z,6.33
2018-09-25T16:03:18.235Z,4.33
2018-09-25T16:05:52.271Z,2.57
2018-09-25T16:08:25.910Z,3.47
2018-09-25T16:10:59.465Z,3.00
2018-09-25T16:13:32.881Z,3.37
2018-09-25T16:16:06.442Z,1.87
2018-09-25T16:18:40.017Z,5.97
2018-09-25T16:21:13.583Z,4.63
2018-09-25T16:23:47.533Z,2.77
2018-09-25T16:26:23.450Z,4.33
2018-09-25T16:28:57.149Z,5.07
2018-09-25T16:34:22.045Z,3.07
2018-09-25T16:37:01.910Z,4.20
2018-09-25T16:39:35.384Z,2.83
2018-09-25T16:42:10.013Z,4.97
2018-09-25T16:44:43.600Z,4.83
2018-09-25T16:47:17.947Z,4.53
2018-09-25T16:49:51.634Z,3.87
2018-09-25T16:52:25.584Z,5.73
2018-09-25T16:54:59.075Z,2.90
2018-09-25T16:57:32.756Z,2.57
2018-09-25T17:00:06.235Z,1.60
2018-09-25T17:02:39.645Z,2.73
2018-09-25T17:05:13.479Z,3.93
2018-09-25T17:07:47.198Z,2.93
2018-09-25T17:10:20.685Z,3.13
2018-09-25T17:12:54.239Z,1.93
2018-09-25T17:15:27.830Z,2.97
2018-09-25T17:18:01.452Z,4.33
2018-09-25T17:20:34.965Z,4.17
2018-09-25T17:23:08.460Z,3.87
2018-09-25T17:25:42.326Z,5.87
2018-09-25T17:28:15.948Z,3.90
2018-09-25T17:30:49.495Z,8.70
2018-09-25T17:33:23.098Z,3.87
2018-09-25T17:35:56.552Z,3.67
2018-09-25T17:38:30.195Z,4.73
2018-09-25T17:41:17.036Z,3.23
2018-09-25T17:43:50.569Z,6.57
2018-09-25T17:46:24.066Z,5.70
2018-09-25T17:48:57.460Z,8.03
2018-09-25T17:51:31.022Z,6.53
2018-09-25T17:54:06.494Z,8.57
2018-09-25T17:56:40.032Z,7.23
2018-09-25T17:59:13.582Z,8.13
2018-09-25T18:01:47.094Z,5.67
2018-09-25T18:04:20.579Z,7.67
2018-09-25T18:06:54.037Z,9.47
2018-09-25T18:09:27.355Z,8.00
2018-09-25T18:12:00.738Z,5.43
2018-09-25T18:14:34.445Z,10.37
2018-09-25T18:17:08.080Z,8.83
2018-09-25T18:19:41.540Z,7.83
2018-09-25T18:22:14.920Z,6.00
2018-09-25T18:24:48.371Z,5.87
2018-09-25T18:27:25.635Z,6.97
2018-09-25T18:29:59.233Z,7.77
2018-09-25T18:32:32.759Z,7.03
2018-09-25T18:35:06.239Z,7.50
2018-09-25T18:37:39.626Z,7.17
2018-09-25T18:40:13.209Z,5.90
2018-09-25T18:42:46.950Z,13.30
2018-09-25T18:45:20.487Z,10.97
2018-09-25T18:47:56.247Z,7.43
2018-09-25T18:50:29.701Z,10.10
2018-09-25T18:53:03.455Z,5.43
2018-09-25T18:55:37.126Z,6.03
2018-09-25T18:58:10.976Z,7.23
2018-09-25T19:00:44.518Z,5.23
2018-09-25T19:03:21.720Z,7.50
2018-09-25T19:05:58.973Z,7.57
2018-09-25T19:08:35.876Z,7.77
2018-09-25T19:11:10.480Z,7.70
2018-09-25T19:13:44.263Z,4.50
2018-09-25T19:16:24.710Z,4.37
2018-09-25T19:18:58.244Z,6.90
2018-09-25T19:21:31.856Z,7.43
2018-09-25T19:24:05.432Z,9.67
2018-09-25T19:26:38.918Z,7.50
2018-09-25T19:29:12.518Z,6.10
2018-09-25T19:31:45.943Z,5.43
2018-09-25T19:34:19.570Z,5.97
2018-09-25T19:36:53.224Z,6.20
2018-09-25T19:39:26.738Z,6.30
2018-09-25T19:42:00.375Z,9.07
2018-09-25T19:44:33.987Z,5.00
2018-09-25T19:47:07.710Z,6.07
2018-09-25T19:49:41.653Z,5.90
2018-09-25T19:52:15.210Z,7.80
2018-09-25T19:54:48.785Z,9.37
2018-09-25T19:57:22.295Z,8.83
2018-09-25T19:59:55.928Z,5.77
2018-09-25T20:02:29.293Z,4.97
2018-09-25T20:05:03.123Z,5.13
2018-09-25T20:07:36.932Z,5.70
2018-09-25T20:10:11.068Z,5.30
2018-09-25T20:12:45.050Z,6.27
2018-09-25T20:15:18.644Z,6.47
2018-09-25T20:17:52.443Z,7.13
2018-09-25T20:20:32.971Z,7.37
2018-09-25T20:23:06.654Z,7.17
2018-09-25T20:25:40.929Z,5.37
2018-09-25T20:28:14.595Z,7.60
2018-09-25T20:30:48.087Z,4.67
2018-09-25T20:33:23.375Z,5.73
2018-09-25T20:35:58.753Z,7.07
2018-09-25T20:38:32.435Z,6.30
2018-09-25T20:41:05.847Z,7.97
2018-09-25T20:43:39.463Z,10.67
2018-09-25T20:46:12.900Z,7.93
2018-09-25T20:48:46.417Z,7.63
2018-09-25T20:51:19.920Z,7.57
2018-09-25T20:53:53.680Z,3.83
2018-09-25T20:56:32.353Z,4.87
2018-09-25T20:59:05.740Z,5.70
2018-09-25T21:01:40.273Z,6.47
2018-09-25T21:04:14.515Z,5.90
2018-09-25T21:06:52.071Z,5.77
2018-09-25T21:09:25.442Z,6.57
2018-09-25T21:11:58.868Z,8.00
2018-09-25T21:14:32.263Z,10.30
2018-09-25T21:17:05.809Z,7.67
2018-09-25T21:19:40.081Z,4.27
2018-09-25T21:22:13.730Z,3.47
2018-09-25T21:24:47.346Z,2.93
2018-09-25T21:27:20.954Z,6.47
2018-09-25T21:29:54.799Z,4.20
2018-09-25T21:32:28.589Z,4.37
2018-09-25T21:35:02.288Z,3.77
2018-09-25T21:38:10.940Z,3.17
2018-09-25T21:43:23.266Z,4.67
2018-09-25T21:45:56.925Z,7.67
2018-09-25T21:48:30.781Z,6.30
2018-09-25T21:51:04.327Z,5.77
2018-09-25T21:53:37.747Z,4.57
2018-09-25T21:56:11.166Z,4.27
2018-09-25T21:58:45.101Z,4.80
2018-09-25T22:01:18.539Z,8.13
2018-09-25T22:03:51.875Z,3.67
2018-09-25T22:06:25.350Z,4.83
2018-09-25T22:08:58.850Z,3.57
2018-09-25T22:11:32.264Z,3.87
2018-09-25T22:14:05.915Z,4.20
2018-09-25T22:16:39.372Z,4.93
2018-09-25T22:19:12.930Z,8.60
2018-09-25T22:21:46.662Z,4.53
2018-09-25T22:24:20.073Z,3.60
2018-09-25T22:26:53.616Z,3.93
2018-09-25T22:29:27.187Z,5.13
2018-09-25T22:32:00.635Z,6.23
2018-09-25T22:34:34.017Z,8.10
2018-09-25T22:37:07.435Z,6.00
2018-09-25T22:39:40.986Z,4.70
2018-09-25T22:42:14.416Z,5.47
2018-09-25T22:44:47.971Z,4.30
2018-09-25T22:47:21.503Z,3.93
2018-09-25T22:50:11.497Z,3.23
2018-09-25T22:52:44.950Z,5.20
2018-09-25T22:55:24.170Z,5.13
2018-09-25T22:57:57.691Z,4.97
2018-09-25T23:00:31.219Z,6.53
2018-09-25T23:03:04.674Z,6.23
2018-09-25T23:05:38.106Z,5.27
2018-09-25T23:08:11.489Z,6.87
2018-09-25T23:10:44.822Z,4.63
2018-09-25T23:13:18.233Z,5.23
2018-09-25T23:15:51.670Z,5.93
2018-09-25T23:18:25.034Z,3.30
2018-09-25T23:20:58.573Z,4.30
2018-09-25T23:23:32.056Z,3.40
2018-09-25T23:26:05.557Z,5.07
2018-09-25T23:28:39.075Z,4.50
2018-09-25T23:31:12.593Z,3.60
2018-09-25T23:33:46.087Z,6.27
2018-09-25T23:36:19.574Z,9.77
2018-09-25T23:38:53.243Z,4.87
2018-09-25T23:41:26.543Z,6.27
2018-09-25T23:44:06.199Z,3.97
2018-09-25T23:46:44.677Z,8.27
2018-09-25T23:49:19.091Z,4.07
2018-09-25T23:51:59.106Z,3.93
2018-09-25T23:54:31.542Z,2.90
2018-09-25T23:57:03.616Z,5.57
2018-09-25T23:59:38.271Z,5.57
